createdAt,value
2023-05-06T00:02:44.644Z,16.22
2023-05-06T00:39:21.239Z,15.80
2023-05-06T00:57:12.567Z,15.59
2023-05-06T00:59:58.645Z,15.60
2023-05-06T01:02:47.447Z,15.57
2023-05-06T01:28:38.709Z,15.35
2023-05-06T01:31:42.322Z,15.33
2023-05-06T01:34:33.724Z,15.36
2023-05-06T01:37:32.644Z,15.29
2023-05-06T01:41:50.519Z,15.30
2023-05-06T02:21:38.747Z,15.19
2023-05-06T02:24:25.180Z,15.19
2023-05-06T02:27:11.361Z,15.22
2023-05-06T02:29:57.383Z,15.18
2023-05-06T02:33:17.391Z,15.11
2023-05-06T02:37:32.798Z,15.07
2023-05-06T02:40:20.757Z,15.02
2023-05-06T02:43:06.910Z,15.02
2023-05-06T02:45:53.871Z,14.97
2023-05-06T02:48:39.735Z,14.95
2023-05-06T02:51:25.556Z,14.91
2023-05-06T02:54:11.790Z,14.87
2023-05-06T02:56:57.885Z,14.82
2023-05-06T02:59:43.798Z,14.82
2023-05-06T03:02:29.416Z,14.82
2023-05-06T03:05:16.046Z,14.80
2023-05-06T03:08:02.606Z,14.74
2023-05-06T03:10:50.444Z,14.76
2023-05-06T03:13:38.368Z,14.69
2023-05-06T03:16:24.703Z,14.71
2023-05-06T03:19:13.673Z,14.70
2023-05-06T03:22:01.678Z,14.65
2023-05-06T03:24:50.596Z,14.63
2023-05-06T03:27:36.893Z,14.57
2023-05-06T03:30:29.164Z,14.54
2023-05-06T03:33:18.671Z,14.51
2023-05-06T03:36:05.696Z,14.53
2023-05-06T03:38:52.825Z,14.51
2023-05-06T03:41:38.930Z,14.48
2023-05-06T03:44:32.303Z,14.45
2023-05-06T03:47:25.896Z,14.43
2023-05-06T03:50:12.029Z,14.42
2023-05-06T03:52:58.753Z,14.43
2023-05-06T03:55:47.186Z,14.45
2023-05-06T03:58:33.653Z,14.43
2023-05-06T04:01:21.791Z,14.44
2023-05-06T04:04:08.259Z,14.44
2023-05-06T04:06:54.688Z,14.42
2023-05-06T04:09:40.992Z,14.50
2023-05-06T04:12:28.071Z,14.50
2023-05-06T04:15:14.422Z,14.57
2023-05-06T04:18:01.770Z,14.55
2023-05-06T04:20:48.656Z,14.64
2023-05-06T04:23:36.056Z,14.66
2023-05-06T04:26:23.638Z,14.69
2023-05-06T04:29:09.712Z,14.75
2023-05-06T04:32:03.725Z,14.75
2023-05-06T04:34:53.833Z,14.80
2023-05-06T04:37:39.938Z,14.84
2023-05-06T04:40:30.899Z,14.90
2023-05-06T04:43:16.559Z,14.91
2023-05-06T04:46:03.885Z,14.98
2023-05-06T04:48:52.693Z,15.01
2023-05-06T04:51:39.936Z,15.04
2023-05-06T04:54:26.092Z,15.06
2023-05-06T04:57:12.100Z,15.11
2023-05-06T05:00:00.435Z,15.10
2023-05-06T05:02:47.128Z,15.16
2023-05-06T05:05:35.720Z,15.17
2023-05-06T05:08:24.012Z,15.22
2023-05-06T05:11:11.049Z,15.23
2023-05-06T05:13:59.450Z,15.30
2023-05-06T05:16:46.878Z,15.33
2023-05-06T05:19:33.679Z,15.32
2023-05-06T05:22:20.217Z,15.36
2023-05-06T05:25:08.166Z,15.42
2023-05-06T05:27:55.543Z,15.41
2023-05-06T05:30:41.309Z,15.46
2023-05-06T05:33:31.225Z,15.52
2023-05-06T05:36:17.705Z,15.55
2023-05-06T05:39:06.027Z,15.59
2023-05-06T05:41:59.401Z,15.61
2023-05-06T05:44:46.378Z,15.65
2023-05-06T05:47:32.254Z,15.73
2023-05-06T05:50:18.921Z,15.75
2023-05-06T05:53:05.716Z,15.81
2023-05-06T05:55:54.177Z,15.89
2023-05-06T05:58:40.334Z,15.95
2023-05-06T06:01:26.789Z,15.96
2023-05-06T06:04:12.862Z,16.00
2023-05-06T06:06:58.824Z,16.06
2023-05-06T06:09:46.950Z,16.13
2023-05-06T06:12:34.681Z,16.16
2023-05-06T06:15:22.206Z,16.21
2023-05-06T06:18:10.552Z,16.27
2023-05-06T06:20:58.240Z,16.31
2023-05-06T06:23:44.598Z,16.33
2023-05-06T06:26:30.841Z,16.38
2023-05-06T06:29:18.715Z,16.44
2023-05-06T06:32:06.481Z,16.48
2023-05-06T06:34:52.743Z,16.51
2023-05-06T06:37:38.945Z,16.59
2023-05-06T06:40:24.707Z,16.61
2023-05-06T06:43:10.736Z,16.67
2023-05-06T06:46:15.841Z,16.70
2023-05-06T06:49:02.008Z,16.77
2023-05-06T06:51:47.895Z,16.81
2023-05-06T06:54:34.121Z,16.85
2023-05-06T06:57:21.044Z,16.87
2023-05-06T07:00:07.623Z,16.90
2023-05-06T07:02:54.083Z,16.98
2023-05-06T07:05:40.078Z,17.04
2023-05-06T07:08:26.000Z,17.06
2023-05-06T07:11:14.393Z,17.12
2023-05-06T07:14:03.017Z,17.16
2023-05-06T07:16:51.376Z,17.17
2023-05-06T07:19:37.835Z,17.21
2023-05-06T07:22:23.599Z,17.29
2023-05-06T07:25:10.005Z,17.33
2023-05-06T07:27:56.457Z,17.36
2023-05-06T07:30:42.686Z,17.36
2023-05-06T07:33:28.970Z,17.33
2023-05-06T07:36:15.379Z,17.42
2023-05-06T07:39:01.835Z,17.51
2023-05-06T07:41:47.900Z,17.52
2023-05-06T07:44:34.169Z,17.58
2023-05-06T07:47:28.789Z,17.61
2023-05-06T07:50:15.284Z,17.62
2023-05-06T07:53:01.796Z,17.70
2023-05-06T07:55:47.616Z,17.71
2023-05-06T07:58:33.432Z,17.74
2023-05-06T08:01:19.674Z,17.83
2023-05-06T08:04:06.446Z,17.87
2023-05-06T08:06:53.467Z,17.92
2023-05-06T08:09:39.561Z,17.90
2023-05-06T08:12:25.582Z,17.96
2023-05-06T08:15:11.777Z,18.00
2023-05-06T08:18:02.157Z,18.09
2023-05-06T08:20:53.278Z,18.13
2023-05-06T08:23:39.301Z,18.25
2023-05-06T08:26:25.041Z,18.31
2023-05-06T08:29:10.845Z,18.31
2023-05-06T08:31:57.300Z,18.43
2023-05-06T08:34:43.211Z,18.49
2023-05-06T08:37:30.692Z,18.53
2023-05-06T08:40:21.908Z,18.60
2023-05-06T08:43:13.356Z,18.67
2023-05-06T08:45:59.623Z,18.76
2023-05-06T08:48:49.966Z,18.87
2023-05-06T08:51:40.637Z,18.99
2023-05-06T08:54:39.032Z,19.03
2023-05-06T08:57:30.138Z,19.16
2023-05-06T09:00:17.596Z,19.22
2023-05-06T09:03:03.968Z,19.35
2023-05-06T09:05:51.665Z,19.45
2023-05-06T09:08:37.351Z,19.48
2023-05-06T09:11:29.749Z,19.62
2023-05-06T09:14:17.828Z,19.67
2023-05-06T09:17:03.960Z,19.75
2023-05-06T09:19:54.309Z,19.80
2023-05-06T09:22:41.093Z,19.85
2023-05-06T09:25:28.417Z,19.97
2023-05-06T09:28:14.611Z,20.05
2023-05-06T09:31:01.120Z,20.14
2023-05-06T09:33:47.269Z,20.24
2023-05-06T09:36:33.871Z,20.34
2023-05-06T09:39:26.573Z,20.45
2023-05-06T09:42:15.109Z,20.53
2023-05-06T09:45:04.501Z,20.61
2023-05-06T09:47:56.087Z,20.70
2023-05-06T09:50:50.799Z,20.75
2023-05-06T09:53:37.400Z,20.87
2023-05-06T09:56:24.006Z,20.92
2023-05-06T09:59:11.454Z,21.02
2023-05-06T10:01:59.324Z,21.08
2023-05-06T10:04:46.654Z,21.12
2023-05-06T10:07:33.133Z,21.19
2023-05-06T10:10:19.412Z,21.23
2023-05-06T10:13:05.407Z,21.31
2023-05-06T10:15:51.790Z,21.35
2023-05-06T10:18:39.258Z,21.43
2023-05-06T10:21:27.556Z,21.51
2023-05-06T10:24:19.386Z,21.59
2023-05-06T10:27:06.596Z,21.70
2023-05-06T10:30:00.491Z,21.85
2023-05-06T10:32:46.772Z,21.96
2023-05-06T10:35:53.024Z,22.06
2023-05-06T10:38:43.893Z,22.13
2023-05-06T10:41:30.816Z,22.18
2023-05-06T10:44:16.665Z,22.22
2023-05-06T10:47:02.562Z,22.24
2023-05-06T10:50:21.077Z,22.34
2023-05-06T10:53:07.296Z,22.35
2023-05-06T10:56:09.053Z,22.48
2023-05-06T10:58:55.942Z,22.57
2023-05-06T11:01:44.130Z,22.64
2023-05-06T11:04:31.331Z,22.73
2023-05-06T11:07:23.068Z,22.83
2023-05-06T11:10:11.461Z,22.91
2023-05-06T11:12:57.808Z,23.01
2023-05-06T11:15:47.384Z,23.08
2023-05-06T11:18:36.997Z,23.19
2023-05-06T11:21:33.405Z,23.33
2023-05-06T11:24:25.904Z,23.42
2023-05-06T11:27:19.578Z,23.49
2023-05-06T11:30:06.631Z,23.54
2023-05-06T11:32:54.273Z,23.63
2023-05-06T11:35:39.968Z,23.68
2023-05-06T11:38:26.947Z,23.76
2023-05-06T11:41:13.795Z,23.84
2023-05-06T11:43:59.750Z,23.93
2023-05-06T11:46:45.969Z,24.05
2023-05-06T11:49:37.718Z,24.17
2023-05-06T11:52:23.549Z,24.28
2023-05-06T11:55:12.458Z,24.42
2023-05-06T11:57:58.578Z,24.61
2023-05-06T12:00:51.769Z,24.81
2023-05-06T12:03:37.918Z,24.97
2023-05-06T12:06:35.201Z,25.21
2023-05-06T12:09:22.752Z,25.35
2023-05-06T12:12:10.936Z,25.64
2023-05-06T12:14:57.134Z,25.81
2023-05-06T12:17:43.440Z,25.99
2023-05-06T12:20:29.609Z,26.15
2023-05-06T12:23:16.508Z,26.34
2023-05-06T12:26:04.658Z,26.40
2023-05-06T12:29:07.964Z,26.31
2023-05-06T12:32:10.570Z,26.19
2023-05-06T12:34:56.786Z,26.14
2023-05-06T12:37:42.701Z,26.16
2023-05-06T12:40:28.947Z,26.20
2023-05-06T12:43:14.777Z,26.34
2023-05-06T12:46:05.918Z,26.58
2023-05-06T12:49:02.658Z,27.02
2023-05-06T12:52:08.624Z,27.32
2023-05-06T12:54:54.907Z,27.39
2023-05-06T12:57:41.408Z,27.60
2023-05-06T13:00:27.703Z,27.74
2023-05-06T13:03:13.979Z,27.95
2023-05-06T13:06:00.272Z,28.40
2023-05-06T13:08:46.367Z,28.97
2023-05-06T13:11:33.312Z,29.52
2023-05-06T13:14:20.804Z,30.14
2023-05-06T13:17:07.020Z,30.37
2023-05-06T13:19:53.487Z,30.26
2023-05-06T13:22:53.294Z,29.96
2023-05-06T13:25:55.904Z,29.61
2023-05-06T13:28:55.458Z,29.41
2023-05-06T13:31:41.231Z,28.84
2023-05-06T13:34:27.257Z,28.50
2023-05-06T13:37:13.335Z,28.41
2023-05-06T13:39:59.023Z,28.75
2023-05-06T13:42:45.080Z,29.21
2023-05-06T13:45:30.960Z,29.63
2023-05-06T13:48:17.879Z,29.90
2023-05-06T13:51:04.220Z,30.06
2023-05-06T13:53:51.892Z,30.25
2023-05-06T13:56:37.894Z,30.29
2023-05-06T13:59:24.143Z,30.31
2023-05-06T14:02:11.667Z,30.27
2023-05-06T14:04:59.103Z,30.05
2023-05-06T14:07:45.945Z,29.74
2023-05-06T14:10:32.013Z,29.46
2023-05-06T14:13:17.734Z,29.24
2023-05-06T14:16:03.795Z,29.06
2023-05-06T14:18:49.686Z,28.81
2023-05-06T14:21:38.862Z,28.59
2023-05-06T14:24:25.831Z,28.29
2023-05-06T14:27:15.249Z,28.03
2023-05-06T14:30:08.220Z,27.82
2023-05-06T14:32:56.246Z,27.64
2023-05-06T14:35:42.917Z,27.42
2023-05-06T14:38:28.676Z,27.24
2023-05-06T14:41:14.539Z,27.03
2023-05-06T14:44:00.656Z,26.90
2023-05-06T14:46:46.741Z,26.68
2023-05-06T14:49:32.790Z,26.60
2023-05-06T14:52:18.912Z,26.51
2023-05-06T14:55:06.879Z,26.36
2023-05-06T14:57:53.624Z,26.26
2023-05-06T15:00:39.293Z,26.09
2023-05-06T15:03:28.282Z,25.96
2023-05-06T15:06:14.463Z,25.81
2023-05-06T15:09:02.131Z,25.68
2023-05-06T15:11:48.207Z,25.54
2023-05-06T15:14:34.210Z,25.44
2023-05-06T15:17:21.241Z,25.31
2023-05-06T15:20:08.736Z,25.24
2023-05-06T15:22:54.929Z,25.18
2023-05-06T15:25:41.040Z,25.17
2023-05-06T15:28:27.236Z,25.16
2023-05-06T15:31:14.719Z,25.12
2023-05-06T15:34:02.896Z,25.10
2023-05-06T15:36:53.297Z,25.02
2023-05-06T15:39:39.558Z,24.94
2023-05-06T15:42:25.845Z,24.90
2023-05-06T15:45:12.361Z,24.78
2023-05-06T15:47:58.302Z,24.71
2023-05-06T15:50:44.273Z,24.63
2023-05-06T15:53:30.094Z,24.52
2023-05-06T15:56:18.842Z,24.49
2023-05-06T15:59:05.976Z,24.46
2023-05-06T16:02:25.736Z,24.36
2023-05-06T16:05:04.173Z,24.37
2023-05-06T16:07:50.489Z,24.37
2023-05-06T16:10:36.693Z,24.38
2023-05-06T16:13:22.923Z,24.36
2023-05-06T16:16:08.819Z,24.41
2023-05-06T16:18:54.757Z,24.39
2023-05-06T16:21:40.364Z,24.37
2023-05-06T16:24:26.294Z,24.33
2023-05-06T16:27:12.295Z,24.30
2023-05-06T16:29:58.293Z,24.24
2023-05-06T16:32:48.283Z,24.15
2023-05-06T16:35:34.492Z,24.14
2023-05-06T16:38:20.719Z,24.08
2023-05-06T16:41:07.173Z,24.04
2023-05-06T16:43:53.070Z,24.01
2023-05-06T16:46:39.053Z,23.98
2023-05-06T16:49:28.114Z,23.94
2023-05-06T16:52:14.059Z,23.87
2023-05-06T16:54:59.753Z,23.86
2023-05-06T16:58:59.531Z,23.79
2023-05-06T17:01:45.623Z,23.67
2023-05-06T17:04:31.788Z,23.63
2023-05-06T17:07:17.904Z,23.57
2023-05-06T17:10:03.752Z,23.49
2023-05-06T17:12:49.802Z,23.45
2023-05-06T17:15:35.818Z,23.39
2023-05-06T17:18:21.753Z,23.33
2023-05-06T17:21:09.006Z,23.24
2023-05-06T17:23:55.019Z,23.19
2023-05-06T17:26:41.860Z,23.13
2023-05-06T17:29:28.410Z,23.05
2023-05-06T17:32:14.385Z,23.02
2023-05-06T17:35:00.557Z,22.93
2023-05-06T17:37:46.618Z,22.86
2023-05-06T17:40:32.845Z,22.74
2023-05-06T17:43:19.215Z,22.73
2023-05-06T17:46:06.858Z,22.67
2023-05-06T17:48:53.316Z,22.59
2023-05-06T17:51:41.053Z,22.46
2023-05-06T17:54:27.150Z,22.44
2023-05-06T17:57:12.987Z,22.34
2023-05-06T17:59:59.113Z,22.33
2023-05-06T18:02:45.915Z,22.25
2023-05-06T18:05:32.452Z,22.15
2023-05-06T18:08:18.644Z,22.17
2023-05-06T18:11:04.950Z,22.07
2023-05-06T18:13:51.521Z,22.03
2023-05-06T18:16:38.621Z,21.99
2023-05-06T18:19:24.674Z,21.91
2023-05-06T18:22:10.505Z,21.86
2023-05-06T18:24:56.672Z,21.82
2023-05-06T18:27:42.508Z,21.74
2023-05-06T18:30:28.624Z,21.69
2023-05-06T18:33:14.940Z,21.61
2023-05-06T18:36:01.735Z,21.57
2023-05-06T18:38:48.100Z,21.48
2023-05-06T18:41:34.228Z,21.43
2023-05-06T18:44:19.881Z,21.37
2023-05-06T18:47:05.923Z,21.33
2023-05-06T18:49:53.438Z,21.27
2023-05-06T18:52:39.138Z,21.12
2023-05-06T18:55:24.988Z,21.11
2023-05-06T18:58:11.041Z,21.03
2023-05-06T19:00:57.343Z,20.98
2023-05-06T19:03:43.534Z,20.86
2023-05-06T19:06:29.476Z,20.81
2023-05-06T19:09:18.193Z,20.70
2023-05-06T19:12:04.752Z,20.62
2023-05-06T19:14:50.751Z,20.53
2023-05-06T19:17:37.004Z,20.50
2023-05-06T19:20:23.300Z,20.43
2023-05-06T19:23:09.745Z,20.39
2023-05-06T19:25:55.906Z,20.27
2023-05-06T19:28:41.640Z,20.29
2023-05-06T19:31:27.325Z,20.24
2023-05-06T19:34:13.206Z,20.15
2023-05-06T19:36:59.792Z,20.16
2023-05-06T19:39:46.624Z,20.12
2023-05-06T19:42:34.276Z,20.05
2023-05-06T19:45:23.181Z,20.02
2023-05-06T19:48:10.754Z,19.92
2023-05-06T19:50:56.608Z,19.87
2023-05-06T19:53:42.685Z,19.85
2023-05-06T19:56:28.632Z,19.76
2023-05-06T19:59:14.552Z,19.72
2023-05-06T20:02:01.933Z,19.63
2023-05-06T20:04:47.926Z,19.61
2023-05-06T20:07:33.984Z,19.52
2023-05-06T20:10:21.020Z,19.46
2023-05-06T20:13:07.217Z,19.42
2023-05-06T20:15:54.626Z,19.40
2023-05-06T20:18:40.761Z,19.34
2023-05-06T20:21:26.437Z,19.24
2023-05-06T20:24:12.936Z,19.21
2023-05-06T20:26:59.257Z,19.15
2023-05-06T20:29:46.008Z,19.12
2023-05-06T20:32:32.338Z,19.08
2023-05-06T20:35:18.152Z,19.02
2023-05-06T20:38:04.407Z,18.98
2023-05-06T20:40:50.415Z,18.87
2023-05-06T20:43:36.576Z,18.88
2023-05-06T20:46:22.617Z,18.82
2023-05-06T20:49:08.593Z,18.85
2023-05-06T20:51:54.890Z,18.78
2023-05-06T20:54:44.309Z,18.77
2023-05-06T20:57:30.598Z,18.79
2023-05-06T21:00:16.719Z,18.72
2023-05-06T21:03:03.063Z,18.71
2023-05-06T21:05:49.152Z,18.72
2023-05-06T21:08:35.421Z,18.66
2023-05-06T21:11:21.858Z,18.60
2023-05-06T21:14:07.916Z,18.51
2023-05-06T21:16:53.989Z,18.44
2023-05-06T21:19:39.872Z,18.39
2023-05-06T21:22:26.067Z,18.31
2023-05-06T21:25:13.298Z,18.27
2023-05-06T21:28:03.324Z,18.21
2023-05-06T21:30:50.747Z,18.13
2023-05-06T21:33:36.927Z,18.13
2023-05-06T21:36:23.064Z,18.02
2023-05-06T21:39:12.116Z,18.02
2023-05-06T21:41:58.273Z,17.93
2023-05-06T21:44:44.520Z,17.85
2023-05-06T21:47:30.784Z,17.75
2023-05-06T21:50:19.025Z,17.67
2023-05-06T21:53:04.789Z,17.55
2023-05-06T21:55:51.031Z,17.56
2023-05-06T21:58:36.874Z,17.46
2023-05-06T22:01:26.179Z,17.36
2023-05-06T22:04:13.168Z,17.35
2023-05-06T22:06:59.608Z,17.29
2023-05-06T22:09:45.437Z,17.19
2023-05-06T22:12:32.012Z,17.20
2023-05-06T22:15:17.983Z,17.09
2023-05-06T22:18:04.276Z,17.12
2023-05-06T22:20:52.504Z,17.06
2023-05-06T22:23:40.661Z,17.04
2023-05-06T22:26:28.343Z,16.95
2023-05-06T22:29:14.248Z,16.96
2023-05-06T22:32:00.190Z,16.85
2023-05-06T22:34:47.180Z,16.79
2023-05-06T22:37:33.034Z,16.78
2023-05-06T22:40:19.048Z,16.70
2023-05-06T22:43:04.841Z,16.69
2023-05-06T22:45:50.661Z,16.63
2023-05-06T22:48:36.326Z,16.63
2023-05-06T22:51:22.324Z,16.57
2023-05-06T22:54:08.543Z,16.52
2023-05-06T22:56:54.504Z,16.52
2023-05-06T22:59:40.420Z,16.49
2023-05-06T23:02:26.578Z,16.49
2023-05-06T23:05:13.041Z,16.49
2023-05-06T23:07:58.996Z,16.39
2023-05-06T23:10:44.641Z,16.44
2023-05-06T23:13:36.087Z,16.42
2023-05-06T23:16:23.515Z,16.34
2023-05-06T23:19:09.616Z,16.38
2023-05-06T23:21:56.409Z,16.35
2023-05-06T23:24:42.350Z,16.30
2023-05-06T23:27:28.463Z,16.32
2023-05-06T23:30:14.493Z,16.27
2023-05-06T23:33:01.726Z,16.27
2023-05-06T23:35:48.010Z,16.29
2023-05-06T23:38:33.794Z,16.18
2023-05-06T23:41:19.724Z,16.16
2023-05-06T23:44:06.348Z,16.18
2023-05-06T23:46:52.474Z,16.11
2023-05-06T23:49:38.501Z,16.13
2023-05-06T23:52:24.168Z,16.03
2023-05-06T23:55:10.704Z,16.05
2023-05-06T23:57:56.948Z,16.00
